createdAt,value
2023-02-11T00:00:07.120Z,102179.84
2023-02-11T00:01:09.424Z,102183.28
2023-02-11T00:02:12.176Z,102180.50
2023-02-11T00:03:13.908Z,102177.69
2023-02-11T00:04:16.786Z,102183.09
2023-02-11T00:05:18.675Z,102184.81
2023-02-11T00:06:21.643Z,102181.13
2023-02-11T00:07:23.368Z,102184.81
2023-02-11T00:08:26.485Z,102189.19
2023-02-11T00:09:31.961Z,102190.91
2023-02-11T00:10:33.860Z,102193.50
2023-02-11T00:11:36.558Z,102185.38
2023-02-11T00:12:39.388Z,102182.56
2023-02-11T00:13:42.207Z,102186.16
2023-02-11T00:14:44.696Z,102195.06
2023-02-11T00:15:47.591Z,102188.63
2023-02-11T00:16:49.504Z,102191.34
2023-02-11T00:17:52.291Z,102190.38
2023-02-11T00:18:54.879Z,102193.97
2023-02-11T00:19:57.660Z,102197.66
2023-02-11T00:20:59.378Z,102189.50
2023-02-11T00:22:02.151Z,102194.06
2023-02-11T00:23:03.851Z,102189.41
2023-02-11T00:24:07.096Z,102198.50
2023-02-11T00:25:10.225Z,102193.00
2023-02-11T00:26:14.134Z,102196.59
2023-02-11T00:27:46.673Z,102191.16
2023-02-11T00:28:50.068Z,102191.91
2023-02-11T00:29:51.961Z,102181.28
2023-02-11T00:30:58.931Z,102184.88
2023-02-11T00:32:05.237Z,102192.88
2023-02-11T00:33:07.304Z,102187.44
2023-02-11T00:34:10.005Z,102177.47
2023-02-11T00:35:11.713Z,102181.06
2023-02-11T00:36:16.697Z,102185.41
2023-02-11T00:37:18.423Z,102184.66
2023-02-11T00:38:21.279Z,102180.97
2023-02-11T00:39:24.010Z,102184.44
2023-02-11T00:40:27.237Z,102180.00
2023-02-11T00:41:30.234Z,102177.28
2023-02-11T00:42:31.953Z,102180.00
2023-02-11T00:43:34.603Z,102176.31
2023-02-11T00:44:37.629Z,102168.19
2023-02-11T00:45:41.746Z,102173.47
2023-02-11T00:46:46.510Z,102164.38
2023-02-11T00:47:48.746Z,102166.13
2023-02-11T00:48:54.947Z,102158.00
2023-02-11T00:49:56.770Z,102159.75
2023-02-11T00:50:59.474Z,102154.50
2023-02-11T00:52:01.197Z,102149.97
2023-02-11T00:53:06.833Z,102156.34
2023-02-11T00:54:08.555Z,102142.38
2023-02-11T00:55:11.276Z,102143.66
2023-02-11T00:56:14.494Z,102142.69
2023-02-11T00:57:17.177Z,102138.88
2023-02-11T00:58:19.009Z,102141.69
2023-02-11T00:59:21.782Z,102144.53
2023-02-11T01:00:37.513Z,102137.59
2023-02-11T01:01:40.228Z,102144.06
2023-02-11T01:02:42.030Z,102150.03
2023-02-11T01:03:44.680Z,102141.91
2023-02-11T01:04:46.398Z,102144.47
2023-02-11T01:05:49.483Z,102139.19
2023-02-11T01:06:51.344Z,102146.63
2023-02-11T01:07:54.102Z,102142.78
2023-02-11T01:08:55.803Z,102147.09
2023-02-11T01:09:58.611Z,102156.00
2023-02-11T01:11:03.605Z,102149.81
2023-02-11T01:12:08.049Z,102154.03
2023-02-11T01:13:09.793Z,102153.28
2023-02-11T01:14:12.484Z,102151.97
2023-02-11T01:15:15.885Z,102148.22
2023-02-11T01:16:20.984Z,102139.09
2023-02-11T01:17:22.825Z,102139.75
2023-02-11T01:18:26.242Z,102141.38
2023-02-11T01:19:27.902Z,102145.19
2023-02-11T01:20:30.630Z,102146.28
2023-02-11T01:21:32.338Z,102137.91
2023-02-11T01:22:37.384Z,102134.44
2023-02-11T01:23:39.214Z,102133.69
2023-02-11T01:24:41.884Z,102139.84
2023-02-11T01:25:43.593Z,102135.44
2023-02-11T01:26:46.300Z,102139.75
2023-02-11T01:27:49.365Z,102138.88
2023-02-11T01:28:52.093Z,102136.94
2023-02-11T01:29:53.760Z,102133.91
2023-02-11T01:30:57.056Z,102128.50
2023-02-11T01:31:59.018Z,102135.66
2023-02-11T01:33:01.766Z,102132.94
2023-02-11T01:34:03.482Z,102142.78
2023-02-11T01:35:06.787Z,102130.88
2023-02-11T01:36:09.253Z,102130.66
2023-02-11T01:37:12.100Z,102124.16
2023-02-11T01:38:16.682Z,102137.59
2023-02-11T01:39:19.326Z,102132.94
2023-02-11T01:40:22.216Z,102130.13
2023-02-11T01:41:24.923Z,102133.59
2023-02-11T01:42:26.610Z,102136.19
2023-02-11T01:43:33.532Z,102127.44
2023-02-11T01:44:37.630Z,102122.00
2023-02-11T01:45:56.846Z,102120.03
2023-02-11T01:46:59.674Z,102123.38
2023-02-11T01:48:02.527Z,102125.22
2023-02-11T01:49:08.523Z,102122.84
2023-02-11T01:50:10.615Z,102115.72
2023-02-11T01:51:15.467Z,102120.03
2023-02-11T01:52:20.071Z,102110.84
2023-02-11T01:53:40.414Z,102110.69
2023-02-11T01:55:03.275Z,102119.69
2023-02-11T01:56:24.618Z,102112.66
2023-02-11T01:57:30.658Z,102110.84
2023-02-11T01:58:36.879Z,102098.34
2023-02-11T01:59:42.946Z,102100.50
2023-02-11T02:00:45.496Z,102094.00
2023-02-11T02:01:52.610Z,102097.47
2023-02-11T02:02:58.707Z,102101.91
2023-02-11T02:04:03.100Z,102093.69
2023-02-11T02:05:09.968Z,102097.47
2023-02-11T02:06:18.568Z,102089.22
2023-02-11T02:07:26.877Z,102088.25
2023-02-11T02:08:34.935Z,102086.44
2023-02-11T02:09:38.662Z,102084.03
2023-02-11T02:10:43.414Z,102083.81
2023-02-11T02:11:45.843Z,102080.56
2023-02-11T02:12:48.659Z,102078.63
2023-02-11T02:13:54.992Z,102075.22
2023-02-11T02:15:23.643Z,102070.34
2023-02-11T02:16:53.791Z,102075.78
2023-02-11T02:18:03.357Z,102069.47
2023-02-11T02:19:55.002Z,102074.16
2023-02-11T02:21:29.064Z,102065.59
2023-02-11T02:22:56.473Z,102067.56
2023-02-11T02:24:16.091Z,102061.91
2023-02-11T02:25:33.168Z,102059.09
2023-02-11T02:27:29.448Z,102051.50
2023-02-11T02:28:55.554Z,102047.16
2023-02-11T02:30:31.583Z,102046.09
2023-02-11T02:31:44.473Z,102047.38
2023-02-11T02:32:53.640Z,102041.28
2023-02-11T02:33:56.511Z,102043.03
2023-02-11T02:35:05.697Z,102047.47
2023-02-11T02:36:15.154Z,102052.03
2023-02-11T02:37:22.558Z,102049.22
2023-02-11T02:38:28.747Z,102041.53
2023-02-11T02:39:33.991Z,102047.81
2023-02-11T02:40:40.204Z,102045.97
2023-02-11T02:41:43.459Z,102048.25
2023-02-11T02:42:48.253Z,102050.22
2023-02-11T02:43:53.977Z,102048.91
2023-02-11T02:44:56.196Z,102051.09
2023-02-11T02:46:11.707Z,102047.06
2023-02-11T02:47:13.453Z,102052.56
2023-02-11T02:48:31.499Z,102054.63
2023-02-11T02:49:33.154Z,102054.31
2023-02-11T02:50:38.002Z,102061.38
2023-02-11T02:52:03.137Z,102070.56
2023-02-11T02:53:15.062Z,102072.75
2023-02-11T02:55:03.498Z,102062.53
2023-02-11T02:56:13.666Z,102079.69
2023-02-11T02:57:35.296Z,102079.34
2023-02-11T02:58:54.351Z,102075.69
2023-02-11T03:00:14.858Z,102084.88
2023-02-11T03:01:26.049Z,102090.41
2023-02-11T03:02:33.113Z,102097.34
2023-02-11T03:03:43.348Z,102095.63
2023-02-11T03:04:50.171Z,102097.25
2023-02-11T03:05:55.896Z,102097.44
2023-02-11T03:07:04.237Z,102098.31
2023-02-11T03:08:08.511Z,102090.75
2023-02-11T03:09:14.388Z,102091.63
2023-02-11T03:10:19.785Z,102084.13
2023-02-11T03:11:25.708Z,102082.19
2023-02-11T03:12:29.765Z,102079.47
2023-02-11T03:13:35.031Z,102073.38
2023-02-11T03:14:37.895Z,102077.50
2023-02-11T03:15:43.319Z,102079.03
2023-02-11T03:16:47.190Z,102075.25
2023-02-11T03:17:51.798Z,102080.34
2023-02-11T03:18:59.254Z,102082.97
2023-02-11T03:20:02.101Z,102072.13
2023-02-11T03:21:06.768Z,102075.69
2023-02-11T03:22:12.686Z,102072.75
2023-02-11T03:23:19.504Z,102074.38
2023-02-11T03:24:25.057Z,102074.91
2023-02-11T03:25:30.890Z,102070.91
2023-02-11T03:26:36.051Z,102060.94
2023-02-11T03:27:42.259Z,102066.38
2023-02-11T03:28:51.208Z,102061.03
2023-02-11T03:29:56.853Z,102069.38
2023-02-11T03:31:03.428Z,102066.66
2023-02-11T03:32:09.269Z,102061.94
2023-02-11T03:33:16.651Z,102063.00
2023-02-11T03:34:24.940Z,102067.53
2023-02-11T03:35:29.241Z,102067.53
2023-02-11T03:36:37.413Z,102072.88
2023-02-11T03:37:41.258Z,102064.63
2023-02-11T03:38:46.543Z,102061.25
2023-02-11T03:39:51.753Z,102053.88
2023-02-11T03:40:55.718Z,102054.63
2023-02-11T03:42:18.998Z,102049.09
2023-02-11T03:43:23.728Z,102059.84
2023-02-11T03:44:29.432Z,102048.03
2023-02-11T03:45:32.492Z,102046.31
2023-02-11T03:46:37.567Z,102036.97
2023-02-11T03:47:42.989Z,102037.84
2023-02-11T03:48:47.289Z,102031.53
2023-02-11T03:49:53.031Z,102031.31
2023-02-11T03:50:55.744Z,102027.63
2023-02-11T03:51:58.953Z,102028.59
2023-02-11T03:53:03.185Z,102018.00
2023-02-11T03:54:07.579Z,102007.81
2023-02-11T03:55:14.765Z,102011.41
2023-02-11T03:56:21.535Z,102002.63
2023-02-11T03:57:24.442Z,102003.78
2023-02-11T03:58:26.283Z,101997.72
2023-02-11T03:59:29.585Z,101996.84
2023-02-11T04:00:36.522Z,101998.69
2023-02-11T04:01:39.228Z,101996.00
2023-02-11T04:02:41.653Z,101980.06
2023-02-11T04:03:44.391Z,101983.97
2023-02-11T04:04:46.858Z,101980.84
2023-02-11T04:05:59.663Z,101982.91
2023-02-11T04:07:01.678Z,101979.50
2023-02-11T04:08:05.121Z,101970.84
2023-02-11T04:09:06.961Z,101974.00
2023-02-11T04:10:09.998Z,101966.75
2023-02-11T04:11:11.700Z,101958.94
2023-02-11T04:12:14.381Z,101977.03
2023-02-11T04:13:16.106Z,101962.84
2023-02-11T04:14:18.804Z,101964.69
2023-02-11T04:15:20.605Z,101971.53
2023-02-11T04:16:23.672Z,101981.16
2023-02-11T04:17:25.595Z,101979.31
2023-02-11T04:18:49.377Z,101984.59
2023-02-11T04:19:51.317Z,101987.88
2023-02-11T04:20:54.014Z,101984.84
2023-02-11T04:21:57.870Z,101983.00
2023-02-11T04:23:00.653Z,101989.81
2023-02-11T04:24:02.346Z,101979.97
2023-02-11T04:25:05.565Z,101995.44
2023-02-11T04:26:07.296Z,101999.91
2023-02-11T04:27:09.958Z,102002.59
2023-02-11T04:28:11.833Z,101999.81
2023-02-11T04:29:14.562Z,101997.63
2023-02-11T04:30:16.295Z,102002.91
2023-02-11T04:31:19.000Z,102002.91
2023-02-11T04:32:20.680Z,102013.75
2023-02-11T04:33:23.834Z,102020.06
2023-02-11T04:34:25.793Z,102021.59
2023-02-11T04:35:28.561Z,102019.19
2023-02-11T04:36:31.382Z,102022.44
2023-02-11T04:37:35.613Z,102015.72
2023-02-11T04:38:38.331Z,102018.09
2023-02-11T04:39:40.021Z,102012.56
2023-02-11T04:40:45.664Z,102012.81
2023-02-11T04:41:47.377Z,102020.94
2023-02-11T04:42:50.101Z,102020.81
2023-02-11T04:43:51.765Z,102018.09
2023-02-11T04:44:54.516Z,102032.50
2023-02-11T04:45:58.006Z,102024.28
2023-02-11T04:47:00.867Z,102030.25
2023-02-11T04:48:03.017Z,102033.59
2023-02-11T04:49:05.856Z,102041.50
2023-02-11T04:50:07.684Z,102038.78
2023-02-11T04:51:10.406Z,102042.25
2023-02-11T04:52:12.100Z,102038.47
2023-02-11T04:53:16.181Z,102035.53
2023-02-11T04:54:18.241Z,102042.56
2023-02-11T04:55:20.894Z,102028.28
2023-02-11T04:56:22.576Z,102023.59
2023-02-11T04:57:25.278Z,102012.88
2023-02-11T04:58:27.035Z,102010.03
2023-02-11T04:59:29.823Z,102007.44
2023-02-11T05:00:31.554Z,102012.88
2023-02-11T05:01:34.375Z,102020.34
2023-02-11T05:02:36.118Z,102010.25
2023-02-11T05:03:39.371Z,102006.16
2023-02-11T05:04:41.143Z,102010.38
2023-02-11T05:05:44.335Z,102004.22
2023-02-11T05:06:46.091Z,102004.22
2023-02-11T05:07:48.775Z,102008.84
2023-02-11T05:08:51.864Z,102000.31
2023-02-11T05:09:54.596Z,101996.06
2023-02-11T05:10:56.423Z,101993.81
2023-02-11T05:11:59.233Z,102002.94
2023-02-11T05:13:01.019Z,101995.34
2023-02-11T05:14:03.689Z,101994.03
2023-02-11T05:15:06.185Z,101996.53
2023-02-11T05:16:08.861Z,101990.00
2023-02-11T05:17:10.680Z,101992.63
2023-02-11T05:18:14.842Z,101983.31
2023-02-11T05:19:16.547Z,101989.06
2023-02-11T05:20:19.577Z,101975.28
2023-02-11T05:21:21.408Z,101974.50
2023-02-11T05:22:24.281Z,101979.53
2023-02-11T05:23:26.001Z,101968.56
2023-02-11T05:24:30.711Z,101974.75
2023-02-11T05:25:32.390Z,101970.09
2023-02-11T05:26:35.120Z,101960.22
2023-02-11T05:27:36.837Z,101964.69
2023-02-11T05:28:41.972Z,101963.56
2023-02-11T05:29:43.710Z,101965.84
2023-02-11T05:30:46.512Z,101975.81
2023-02-11T05:31:48.352Z,101978.84
2023-02-11T05:32:51.966Z,101975.72
2023-02-11T05:33:53.662Z,101979.31
2023-02-11T05:34:56.346Z,101981.03
2023-02-11T05:35:59.653Z,101990.13
2023-02-11T05:37:02.434Z,101984.72
2023-02-11T05:38:04.250Z,101990.13
2023-02-11T05:39:06.955Z,101999.69
2023-02-11T05:40:10.913Z,101987.75
2023-02-11T05:41:13.628Z,101991.44
2023-02-11T05:42:15.390Z,101983.72
2023-02-11T05:43:18.243Z,101980.28
2023-02-11T05:44:19.932Z,101986.66
2023-02-11T05:45:22.699Z,101977.75
2023-02-11T05:46:24.401Z,101980.13
2023-02-11T05:47:27.134Z,101971.03
2023-02-11T05:48:28.869Z,101974.38
2023-02-11T05:49:31.796Z,101973.75
2023-02-11T05:50:33.556Z,101977.31
2023-02-11T05:51:36.320Z,101983.97
2023-02-11T05:52:40.827Z,101976.22
2023-02-11T05:53:43.548Z,101987.75
2023-02-11T05:54:45.265Z,101981.22
2023-02-11T05:55:49.924Z,101985.91
2023-02-11T05:56:51.851Z,101979.38
2023-02-11T05:57:54.521Z,101981.00
2023-02-11T05:58:56.264Z,101986.19
2023-02-11T05:59:58.987Z,101981.97
2023-02-11T06:01:00.712Z,101989.00
2023-02-11T06:02:03.449Z,101983.81
2023-02-11T06:03:05.497Z,101985.44
2023-02-11T06:04:08.234Z,101983.81
2023-02-11T06:05:10.205Z,101982.72
2023-02-11T06:06:13.107Z,101993.78
2023-02-11T06:07:14.844Z,101988.13
2023-02-11T06:08:17.537Z,101986.28
2023-02-11T06:09:19.258Z,101995.09
2023-02-11T06:10:22.008Z,102000.53
2023-02-11T06:11:25.136Z,101995.09
2023-02-11T06:12:28.140Z,101987.94
2023-02-11T06:13:29.828Z,102003.34
2023-02-11T06:14:33.643Z,101999.13
2023-02-11T06:15:35.344Z,102001.28
2023-02-11T06:16:38.070Z,101998.44
2023-02-11T06:17:39.776Z,101995.44
2023-02-11T06:18:42.509Z,101997.28
2023-02-11T06:19:44.232Z,101992.50
2023-02-11T06:20:46.973Z,101975.50
2023-02-11T06:21:48.668Z,101986.63
2023-02-11T06:22:51.444Z,101981.22
2023-02-11T06:23:53.187Z,101981.97
2023-02-11T06:25:01.795Z,101988.47
2023-02-11T06:26:04.434Z,101994.56
2023-02-11T06:27:08.496Z,101997.91
2023-02-11T06:28:10.691Z,101999.66
2023-02-11T06:29:13.982Z,102003.53
2023-02-11T06:30:15.798Z,102002.47
2023-02-11T06:31:18.668Z,102009.63
2023-02-11T06:32:42.356Z,102004.94
2023-02-11T06:33:44.045Z,102009.63
2023-02-11T06:34:45.996Z,102009.97
2023-02-11T06:35:51.936Z,102008.75
2023-02-11T06:36:53.902Z,102000.38
2023-02-11T06:37:56.624Z,102000.19
2023-02-11T06:38:58.377Z,101999.75
2023-02-11T06:40:01.044Z,102000.72
2023-02-11T06:41:02.758Z,101996.81
2023-02-11T06:42:07.881Z,101995.72
2023-02-11T06:43:11.134Z,101987.69
2023-02-11T06:44:13.873Z,101991.53
2023-02-11T06:45:15.776Z,101993.13
2023-02-11T06:46:18.503Z,101995.72
2023-02-11T06:47:20.311Z,101993.91
2023-02-11T06:48:23.997Z,101996.16
2023-02-11T06:49:26.672Z,101997.69
2023-02-11T06:50:28.386Z,101990.50
2023-02-11T06:51:31.090Z,101996.28
2023-02-11T06:52:32.910Z,102003.22
2023-02-11T06:53:37.310Z,101999.66
2023-02-11T06:54:39.147Z,102006.16
2023-02-11T06:55:41.828Z,101997.03
2023-02-11T06:56:43.622Z,102002.69
2023-02-11T06:57:46.292Z,101993.56
2023-02-11T06:58:52.472Z,101992.69
2023-02-11T06:59:55.610Z,102006.25
2023-02-11T07:00:57.313Z,102002.56
2023-02-11T07:02:00.053Z,102005.06
2023-02-11T07:03:01.866Z,102008.75
2023-02-11T07:04:04.698Z,102001.63
2023-02-11T07:05:07.257Z,102007.44
2023-02-11T07:06:13.678Z,101999.66
2023-02-11T07:07:15.447Z,102004.22
2023-02-11T07:08:18.123Z,101996.41
2023-02-11T07:09:19.958Z,101999.88
2023-02-11T07:10:22.853Z,102005.06
2023-02-11T07:11:26.797Z,101999.25
2023-02-11T07:12:29.546Z,102006.81
2023-02-11T07:13:31.251Z,101992.72
2023-02-11T07:14:35.399Z,102000.31
2023-02-11T07:15:37.478Z,101998.44
2023-02-11T07:16:40.293Z,101990.22
2023-02-11T07:17:41.986Z,101996.16
2023-02-11T07:18:45.085Z,101985.56
2023-02-11T07:19:46.822Z,101990.31
2023-02-11T07:20:49.476Z,101997.13
2023-02-11T07:21:51.177Z,101991.53
2023-02-11T07:22:53.858Z,101997.91
2023-02-11T07:23:58.478Z,101994.44
2023-02-11T07:25:04.621Z,101990.75
2023-02-11T07:26:07.597Z,101985.09
2023-02-11T07:27:10.295Z,101977.63
2023-02-11T07:28:12.062Z,101984.53
2023-02-11T07:29:14.786Z,101973.81
2023-02-11T07:30:17.963Z,101991.19
2023-02-11T07:31:22.028Z,101990.84
2023-02-11T07:32:23.805Z,101985.09
2023-02-11T07:33:26.600Z,101975.13
2023-02-11T07:34:28.401Z,101987.81
2023-02-11T07:35:31.078Z,101974.25
2023-02-11T07:36:32.802Z,101978.50
2023-02-11T07:37:35.689Z,101982.81
2023-02-11T07:38:38.124Z,101980.00
2023-02-11T07:39:40.804Z,101976.97
2023-02-11T07:40:42.502Z,101982.47
2023-02-11T07:41:48.001Z,101985.59
2023-02-11T07:42:49.732Z,101980.38
2023-02-11T07:43:52.779Z,101984.63
2023-02-11T07:44:54.554Z,101964.59
2023-02-11T07:45:59.470Z,101976.81
2023-02-11T07:47:02.186Z,101985.59
2023-02-11T07:48:04.205Z,101981.34
2023-02-11T07:49:06.900Z,101975.69
2023-02-11T07:50:09.393Z,101977.19
2023-02-11T07:51:14.651Z,101987.94
2023-02-11T07:52:16.419Z,101988.56
2023-02-11T07:53:19.215Z,101985.66
2023-02-11T07:54:21.034Z,101993.69
2023-02-11T07:55:23.731Z,101984.25
2023-02-11T07:56:26.103Z,101996.16
2023-02-11T07:57:28.871Z,101995.03
2023-02-11T07:58:30.739Z,101991.94
2023-02-11T07:59:33.721Z,102003.88
2023-02-11T08:00:35.489Z,102010.59
2023-02-11T08:01:39.847Z,102007.06
2023-02-11T08:02:41.579Z,102002.28
2023-02-11T08:03:44.431Z,102014.53
2023-02-11T08:04:46.389Z,102013.06
2023-02-11T08:05:49.489Z,102005.88
2023-02-11T08:06:53.023Z,102015.44
2023-02-11T08:07:55.881Z,102025.47
2023-02-11T08:08:58.946Z,102025.88
2023-02-11T08:10:00.639Z,102022.69
2023-02-11T08:11:07.571Z,102028.16
2023-02-11T08:12:09.322Z,102031.50
2023-02-11T08:13:12.014Z,102032.81
2023-02-11T08:14:13.890Z,102035.28
2023-02-11T08:15:16.622Z,102040.72
2023-02-11T08:16:20.256Z,102037.13
2023-02-11T08:17:24.391Z,102035.91
2023-02-11T08:18:26.203Z,102037.28
2023-02-11T08:19:28.962Z,102043.84
2023-02-11T08:20:32.101Z,102036.41
2023-02-11T08:21:33.905Z,102027.91
2023-02-11T08:22:36.607Z,102027.53
2023-02-11T08:23:38.453Z,102018.41
2023-02-11T08:24:41.147Z,102018.66
2023-02-11T08:25:43.819Z,102025.47
2023-02-11T08:26:46.517Z,102022.84
2023-02-11T08:27:48.228Z,102033.22
2023-02-11T08:28:52.854Z,102030.53
2023-02-11T08:29:55.609Z,102035.97
2023-02-11T08:30:57.444Z,102042.78
2023-02-11T08:32:00.166Z,102033.63
2023-02-11T08:33:03.405Z,102040.56
2023-02-11T08:34:06.447Z,102042.69
2023-02-11T08:35:12.390Z,102043.69
2023-02-11T08:36:16.377Z,102047.50
2023-02-11T08:37:19.077Z,102046.91
2023-02-11T08:38:20.773Z,102048.38
2023-02-11T08:39:24.309Z,102043.56
2023-02-11T08:40:26.002Z,102047.75
2023-02-11T08:41:28.859Z,102052.72
2023-02-11T08:42:31.559Z,102058.78
2023-02-11T08:43:33.466Z,102060.00
2023-02-11T08:44:36.269Z,102058.03
2023-02-11T08:45:38.124Z,102064.59
2023-02-11T08:46:40.937Z,102059.75
2023-02-11T08:47:42.673Z,102059.00
2023-02-11T08:48:47.626Z,102058.53
2023-02-11T08:49:50.402Z,102062.22
2023-02-11T08:50:52.156Z,102073.59
2023-02-11T08:51:56.232Z,102073.50
2023-02-11T08:52:57.958Z,102085.59
2023-02-11T08:54:01.529Z,102081.28
2023-02-11T08:55:06.460Z,102080.03
2023-02-11T08:56:12.249Z,102090.16
2023-02-11T08:57:16.090Z,102081.63
2023-02-11T08:58:19.252Z,102086.94
2023-02-11T08:59:22.105Z,102077.44
2023-02-11T09:00:24.174Z,102082.16
2023-02-11T09:01:29.341Z,102079.03
2023-02-11T09:02:31.119Z,102080.63
2023-02-11T09:03:33.824Z,102083.84
2023-02-11T09:04:36.910Z,102090.16
2023-02-11T09:05:42.502Z,102090.28
2023-02-11T09:06:44.307Z,102088.78
2023-02-11T09:07:47.011Z,102086.41
2023-02-11T09:08:50.216Z,102083.06
2023-02-11T09:09:53.051Z,102086.38
2023-02-11T09:10:59.931Z,102087.75
2023-02-11T09:12:03.662Z,102084.16
2023-02-11T09:13:06.549Z,102086.59
2023-02-11T09:14:09.383Z,102088.09
2023-02-11T09:15:11.097Z,102082.38
2023-02-11T09:16:18.301Z,102079.31
2023-02-11T09:17:21.035Z,102080.06
2023-02-11T09:18:22.736Z,102088.56
2023-02-11T09:19:25.505Z,102086.44
2023-02-11T09:20:28.583Z,102076.28
2023-02-11T09:21:31.809Z,102078.66
2023-02-11T09:22:34.483Z,102077.81
2023-02-11T09:23:36.473Z,102083.03
2023-02-11T09:24:39.345Z,102085.50
2023-02-11T09:25:42.453Z,102083.38
2023-02-11T09:26:45.338Z,102085.22
2023-02-11T09:27:47.063Z,102083.16
2023-02-11T09:28:51.289Z,102080.66
2023-02-11T09:29:53.928Z,102087.34
2023-02-11T09:30:55.857Z,102088.09
2023-02-11T09:31:58.746Z,102087.34
2023-02-11T09:33:00.513Z,102088.72
2023-02-11T09:34:05.751Z,102085.13
2023-02-11T09:35:08.839Z,102089.47
2023-02-11T09:36:11.931Z,102090.97
2023-02-11T09:37:14.648Z,102099.13
2023-02-11T09:38:16.375Z,102094.53
2023-02-11T09:39:20.258Z,102093.13
2023-02-11T09:40:22.577Z,102103.66
2023-02-11T09:41:58.111Z,102106.38
2023-02-11T09:43:05.603Z,102110.13
2023-02-11T09:44:08.731Z,102099.22
2023-02-11T09:45:15.832Z,102101.78
2023-02-11T09:46:20.039Z,102108.97
2023-02-11T09:47:27.047Z,102106.84
2023-02-11T09:48:30.896Z,102106.75
2023-02-11T09:49:37.231Z,102108.47
2023-02-11T09:50:41.935Z,102108.31
2023-02-11T09:51:49.293Z,102109.59
2023-02-11T09:52:56.981Z,102115.66
2023-02-11T09:54:05.461Z,102109.94
2023-02-11T09:55:19.411Z,102117.75
2023-02-11T09:56:22.074Z,102115.19
2023-02-11T09:57:29.146Z,102115.19
2023-02-11T09:58:34.942Z,102111.59
2023-02-11T09:59:37.772Z,102115.44
2023-02-11T10:00:43.728Z,102123.47
2023-02-11T10:01:48.244Z,102113.25
2023-02-11T10:03:38.451Z,102112.38
2023-02-11T10:04:50.914Z,102104.44
2023-02-11T10:06:20.048Z,102112.00
2023-02-11T10:07:27.931Z,102106.56
2023-02-11T10:08:37.305Z,102108.28
2023-02-11T10:09:53.864Z,102109.28
2023-02-11T10:11:01.679Z,102113.25
2023-02-11T10:12:15.713Z,102107.69
2023-02-11T10:13:42.773Z,102105.19
2023-02-11T10:15:15.110Z,102099.75
2023-02-11T10:16:27.665Z,102106.34
2023-02-11T10:17:36.039Z,102099.75
2023-02-11T10:18:47.844Z,102114.50
2023-02-11T10:20:02.677Z,102106.50
2023-02-11T10:21:14.933Z,102105.47
2023-02-11T10:22:20.643Z,102097.44
2023-02-11T10:23:26.811Z,102107.09
2023-02-11T10:24:29.206Z,102103.13
2023-02-11T10:25:36.087Z,102105.75
2023-02-11T10:26:40.079Z,102101.91
2023-02-11T10:27:43.367Z,102105.34
2023-02-11T10:28:47.724Z,102097.28
2023-02-11T10:29:52.494Z,102098.03
2023-02-11T10:30:59.976Z,102109.66
2023-02-11T10:32:05.486Z,102104.22
2023-02-11T10:33:16.047Z,102105.19
2023-02-11T10:34:17.753Z,102103.59
2023-02-11T10:35:22.875Z,102095.69
2023-02-11T10:36:28.112Z,102096.31
2023-02-11T10:37:31.274Z,102097.16
2023-02-11T10:38:36.394Z,102093.38
2023-02-11T10:39:39.905Z,102103.25
2023-02-11T10:40:42.764Z,102100.75
2023-02-11T10:41:45.956Z,102096.56
2023-02-11T10:42:53.579Z,102103.22
2023-02-11T10:43:57.940Z,102097.50
2023-02-11T10:45:03.964Z,102103.97
2023-02-11T10:46:07.037Z,102105.94
2023-02-11T10:47:13.522Z,102104.97
2023-02-11T10:48:39.254Z,102102.63
2023-02-11T10:49:42.118Z,102098.28
2023-02-11T10:50:44.858Z,102097.88
2023-02-11T10:51:46.548Z,102099.75
2023-02-11T10:52:49.726Z,102095.16
2023-02-11T10:54:21.300Z,102098.75
2023-02-11T10:55:26.236Z,102101.25
2023-02-11T10:56:29.363Z,102111.66
2023-02-11T10:57:36.069Z,102098.66
2023-02-11T10:58:45.341Z,102109.66
2023-02-11T10:59:47.928Z,102106.94
2023-02-11T11:00:54.531Z,102107.47
2023-02-11T11:02:00.554Z,102113.66
2023-02-11T11:03:03.978Z,102106.22
2023-02-11T11:04:06.515Z,102113.03
2023-02-11T11:05:18.078Z,102111.91
2023-02-11T11:06:29.940Z,102104.00
2023-02-11T11:07:34.303Z,102117.63
2023-02-11T11:08:42.297Z,102113.16
2023-02-11T11:09:48.267Z,102097.69
2023-02-11T11:11:03.820Z,102100.28
2023-02-11T11:12:06.636Z,102101.47
2023-02-11T11:13:25.129Z,102098.38
2023-02-11T11:14:29.655Z,102091.06
2023-02-11T11:15:33.453Z,102099.00
2023-02-11T11:16:37.275Z,102093.06
2023-02-11T11:17:38.973Z,102098.09
2023-02-11T11:18:43.821Z,102102.34
2023-02-11T11:19:45.535Z,102096.50
2023-02-11T11:20:57.401Z,102105.38
2023-02-11T11:22:00.327Z,102106.13
2023-02-11T11:23:14.281Z,102109.59
2023-02-11T11:24:19.467Z,102105.59
2023-02-11T11:25:27.035Z,102100.50
2023-02-11T11:26:40.136Z,102102.84
2023-02-11T11:27:41.841Z,102096.97
2023-02-11T11:28:54.802Z,102093.00
2023-02-11T11:29:57.742Z,102096.59
2023-02-11T11:31:00.949Z,102093.47
2023-02-11T11:32:05.449Z,102100.13
2023-02-11T11:33:21.354Z,102098.75
2023-02-11T11:34:28.606Z,102101.78
2023-02-11T11:35:33.010Z,102106.59
2023-02-11T11:36:38.108Z,102097.13
2023-02-11T11:37:39.904Z,102103.47
2023-02-11T11:38:45.560Z,102094.88
2023-02-11T11:39:57.443Z,102103.38
2023-02-11T11:41:20.326Z,102108.41
2023-02-11T11:42:28.266Z,102106.16
2023-02-11T11:43:29.990Z,102100.09
2023-02-11T11:44:34.323Z,102096.09
2023-02-11T11:45:36.076Z,102107.97
2023-02-11T11:46:41.507Z,102090.59
2023-02-11T11:47:46.361Z,102087.44
2023-02-11T11:48:49.544Z,102089.78
2023-02-11T11:50:01.709Z,102093.25
2023-02-11T11:51:06.669Z,102092.97
2023-02-11T11:52:18.329Z,102091.72
2023-02-11T11:53:24.788Z,102088.69
2023-02-11T11:54:28.194Z,102082.09
2023-02-11T11:55:36.274Z,102089.28
2023-02-11T11:56:43.386Z,102078.94
2023-02-11T11:57:45.248Z,102087.00
2023-02-11T11:58:48.324Z,102088.16
2023-02-11T11:59:50.132Z,102087.13
2023-02-11T12:01:03.582Z,102088.28
2023-02-11T12:02:21.967Z,102088.41
2023-02-11T12:03:51.960Z,102090.09
2023-02-11T12:05:02.716Z,102096.56
2023-02-11T12:06:14.461Z,102094.69
2023-02-11T12:07:26.150Z,102097.88
2023-02-11T12:08:40.380Z,102091.44
2023-02-11T12:09:52.277Z,102093.28
2023-02-11T12:11:02.236Z,102087.84
2023-02-11T12:12:16.306Z,102086.97
2023-02-11T12:13:30.864Z,102087.38
2023-02-11T12:14:43.337Z,102085.22
2023-02-11T12:15:54.777Z,102080.63
2023-02-11T12:17:02.654Z,102082.25
2023-02-11T12:18:14.978Z,102080.22
2023-02-11T12:19:33.089Z,102075.38
2023-02-11T12:20:40.775Z,102082.69
2023-02-11T12:21:49.519Z,102078.53
2023-02-11T12:23:01.272Z,102077.13
2023-02-11T12:24:15.692Z,102078.84
2023-02-11T12:25:26.542Z,102077.00